sensor_id;sensor_type;location;lat;lon;timestamp;P1;durP1;ratioP1;P2;durP2;ratioP2
64063;SDS011;50314;50.618;10.642;2022-07-23T00:01:02;2.55;;;1.55;;
64063;SDS011;50314;50.618;10.642;2022-07-23T00:03:27;2.53;;;1.85;;
64063;SDS011;50314;50.618;10.642;2022-07-23T00:05:53;2.10;;;1.90;;
64063;SDS011;50314;50.618;10.642;2022-07-23T00:08:18;3.15;;;2.30;;
64063;SDS011;50314;50.618;10.642;2022-07-23T00:10:44;2.45;;;1.77;;
64063;SDS011;50314;50.618;10.642;2022-07-23T00:13:10;3.63;;;2.00;;
64063;SDS011;50314;50.618;10.642;2022-07-23T00:15:35;1.98;;;1.83;;
64063;SDS011;50314;50.618;10.642;2022-07-23T00:18:01;3.88;;;1.75;;
64063;SDS011;50314;50.618;10.642;2022-07-23T00:20:26;2.03;;;1.83;;
64063;SDS011;50314;50.618;10.642;2022-07-23T00:22:53;2.88;;;2.40;;
64063;SDS011;50314;50.618;10.642;2022-07-23T00:25:20;2.15;;;1.92;;
64063;SDS011;50314;50.618;10.642;2022-07-23T00:27:46;3.00;;;2.20;;
64063;SDS011;50314;50.618;10.642;2022-07-23T00:30:12;3.25;;;2.05;;
64063;SDS011;50314;50.618;10.642;2022-07-23T00:32:51;3.08;;;1.98;;
64063;SDS011;50314;50.618;10.642;2022-07-23T00:35:21;2.90;;;1.83;;
64063;SDS011;50314;50.618;10.642;2022-07-23T00:37:48;2.17;;;1.98;;
64063;SDS011;50314;50.618;10.642;2022-07-23T00:40:14;2.97;;;1.85;;
64063;SDS011;50314;50.618;10.642;2022-07-23T00:42:40;2.60;;;1.90;;
64063;SDS011;50314;50.618;10.642;2022-07-23T00:45:05;2.67;;;1.83;;
64063;SDS011;50314;50.618;10.642;2022-07-23T00:47:31;1.92;;;1.63;;
64063;SDS011;50314;50.618;10.642;2022-07-23T00:49:57;1.85;;;1.73;;
64063;SDS011;50314;50.618;10.642;2022-07-23T00:52:23;2.33;;;2.13;;
64063;SDS011;50314;50.618;10.642;2022-07-23T00:54:49;1.80;;;1.70;;
64063;SDS011;50314;50.618;10.642;2022-07-23T00:57:15;2.80;;;2.22;;
64063;SDS011;50314;50.618;10.642;2022-07-23T00:59:40;2.30;;;2.08;;
64063;SDS011;50314;50.618;10.642;2022-07-23T01:02:06;2.20;;;1.90;;
64063;SDS011;50314;50.618;10.642;2022-07-23T01:04:31;2.40;;;2.20;;
64063;SDS011;50314;50.618;10.642;2022-07-23T01:06:57;2.40;;;2.20;;
64063;SDS011;50314;50.618;10.642;2022-07-23T01:09:22;2.05;;;1.80;;
64063;SDS011;50314;50.618;10.642;2022-07-23T01:11:48;2.47;;;2.17;;
64063;SDS011;50314;50.618;10.642;2022-07-23T01:14:17;2.75;;;2.08;;
64063;SDS011;50314;50.618;10.642;2022-07-23T01:16:44;3.15;;;2.00;;
64063;SDS011;50314;50.618;10.642;2022-07-23T01:19:11;1.98;;;1.80;;
64063;SDS011;50314;50.618;10.642;2022-07-23T01:21:38;2.42;;;1.70;;
64063;SDS011;50314;50.618;10.642;2022-07-23T01:24:08;2.17;;;1.83;;
64063;SDS011;50314;50.618;10.642;2022-07-23T01:26:35;2.28;;;1.90;;
64063;SDS011;50314;50.618;10.642;2022-07-23T01:29:01;4.22;;;2.25;;
64063;SDS011;50314;50.618;10.642;2022-07-23T01:31:27;2.42;;;1.90;;
64063;SDS011;50314;50.618;10.642;2022-07-23T01:33:53;2.38;;;2.10;;
64063;SDS011;50314;50.618;10.642;2022-07-23T01:36:18;2.42;;;2.22;;
64063;SDS011;50314;50.618;10.642;2022-07-23T01:38:44;2.55;;;2.30;;
64063;SDS011;50314;50.618;10.642;2022-07-23T01:41:09;2.33;;;2.13;;
64063;SDS011;50314;50.618;10.642;2022-07-23T01:43:35;2.50;;;1.92;;
64063;SDS011;50314;50.618;10.642;2022-07-23T01:46:00;3.53;;;2.10;;
64063;SDS011;50314;50.618;10.642;2022-07-23T01:48:25;3.00;;;2.10;;
64063;SDS011;50314;50.618;10.642;2022-07-23T01:50:51;2.17;;;1.80;;
64063;SDS011;50314;50.618;10.642;2022-07-23T01:53:16;3.22;;;2.00;;
64063;SDS011;50314;50.618;10.642;2022-07-23T01:55:42;2.63;;;2.20;;
64063;SDS011;50314;50.618;10.642;2022-07-23T01:58:08;2.20;;;2.00;;
64063;SDS011;50314;50.618;10.642;2022-07-23T02:00:34;3.35;;;2.00;;
64063;SDS011;50314;50.618;10.642;2022-07-23T02:02:59;3.83;;;2.40;;
64063;SDS011;50314;50.618;10.642;2022-07-23T02:05:25;2.58;;;2.10;;
64063;SDS011;50314;50.618;10.642;2022-07-23T02:07:51;3.42;;;2.17;;
64063;SDS011;50314;50.618;10.642;2022-07-23T02:10:17;4.85;;;2.30;;
64063;SDS011;50314;50.618;10.642;2022-07-23T02:12:42;3.58;;;2.50;;
64063;SDS011;50314;50.618;10.642;2022-07-23T02:15:08;3.60;;;2.30;;
64063;SDS011;50314;50.618;10.642;2022-07-23T02:17:33;2.45;;;2.13;;
64063;SDS011;50314;50.618;10.642;2022-07-23T02:19:59;2.67;;;2.10;;
64063;SDS011;50314;50.618;10.642;2022-07-23T02:22:24;2.47;;;2.28;;
64063;SDS011;50314;50.618;10.642;2022-07-23T02:24:50;2.20;;;1.95;;
64063;SDS011;50314;50.618;10.642;2022-07-23T02:27:15;3.40;;;2.22;;
64063;SDS011;50314;50.618;10.642;2022-07-23T02:29:40;2.83;;;2.50;;
64063;SDS011;50314;50.618;10.642;2022-07-23T02:32:06;2.65;;;2.17;;
64063;SDS011;50314;50.618;10.642;2022-07-23T02:34:31;2.55;;;1.75;;
64063;SDS011;50314;50.618;10.642;2022-07-23T02:36:57;2.40;;;2.20;;
64063;SDS011;50314;50.618;10.642;2022-07-23T02:39:22;3.08;;;2.50;;
64063;SDS011;50314;50.618;10.642;2022-07-23T02:41:47;3.03;;;2.17;;
64063;SDS011;50314;50.618;10.642;2022-07-23T02:44:13;2.20;;;2.00;;
64063;SDS011;50314;50.618;10.642;2022-07-23T02:46:38;2.55;;;2.20;;
64063;SDS011;50314;50.618;10.642;2022-07-23T02:49:03;2.40;;;2.20;;
64063;SDS011;50314;50.618;10.642;2022-07-23T02:51:29;3.00;;;2.40;;
64063;SDS011;50314;50.618;10.642;2022-07-23T02:53:55;2.53;;;2.33;;
64063;SDS011;50314;50.618;10.642;2022-07-23T02:56:21;2.65;;;2.30;;
64063;SDS011;50314;50.618;10.642;2022-07-23T02:58:46;3.45;;;2.35;;
64063;SDS011;50314;50.618;10.642;2022-07-23T03:01:11;2.80;;;2.50;;
64063;SDS011;50314;50.618;10.642;2022-07-23T03:03:37;3.60;;;2.70;;
64063;SDS011;50314;50.618;10.642;2022-07-23T03:06:02;2.55;;;2.22;;
64063;SDS011;50314;50.618;10.642;2022-07-23T03:08:28;2.00;;;1.80;;
64063;SDS011;50314;50.618;10.642;2022-07-23T03:10:53;3.90;;;2.47;;
64063;SDS011;50314;50.618;10.642;2022-07-23T03:13:19;2.58;;;2.35;;
64063;SDS011;50314;50.618;10.642;2022-07-23T03:15:44;2.58;;;2.35;;
64063;SDS011;50314;50.618;10.642;2022-07-23T03:18:09;2.53;;;2.33;;
64063;SDS011;50314;50.618;10.642;2022-07-23T03:20:35;2.53;;;2.28;;
64063;SDS011;50314;50.618;10.642;2022-07-23T03:23:00;4.88;;;2.70;;
64063;SDS011;50314;50.618;10.642;2022-07-23T03:25:26;2.70;;;2.50;;
64063;SDS011;50314;50.618;10.642;2022-07-23T03:27:51;3.60;;;2.50;;
64063;SDS011;50314;50.618;10.642;2022-07-23T03:30:17;2.95;;;2.58;;
64063;SDS011;50314;50.618;10.642;2022-07-23T03:32:42;2.83;;;2.55;;
64063;SDS011;50314;50.618;10.642;2022-07-23T03:35:08;2.83;;;2.53;;
64063;SDS011;50314;50.618;10.642;2022-07-23T03:37:33;2.53;;;2.33;;
64063;SDS011;50314;50.618;10.642;2022-07-23T03:39:59;3.03;;;2.58;;
64063;SDS011;50314;50.618;10.642;2022-07-23T03:42:24;3.90;;;2.95;;
64063;SDS011;50314;50.618;10.642;2022-07-23T03:44:49;2.78;;;2.50;;
64063;SDS011;50314;50.618;10.642;2022-07-23T03:47:15;3.83;;;3.00;;
64063;SDS011;50314;50.618;10.642;2022-07-23T03:49:42;2.90;;;2.40;;
64063;SDS011;50314;50.618;10.642;2022-07-23T03:52:08;3.00;;;2.70;;
64063;SDS011;50314;50.618;10.642;2022-07-23T03:54:33;3.92;;;2.80;;
64063;SDS011;50314;50.618;10.642;2022-07-23T03:56:59;3.45;;;3.08;;
64063;SDS011;50314;50.618;10.642;2022-07-23T03:59:24;3.90;;;2.80;;
64063;SDS011;50314;50.618;10.642;2022-07-23T04:01:50;3.97;;;2.80;;
64063;SDS011;50314;50.618;10.642;2022-07-23T04:04:15;7.40;;;2.95;;
64063;SDS011;50314;50.618;10.642;2022-07-23T04:06:41;2.80;;;2.50;;
64063;SDS011;50314;50.618;10.642;2022-07-23T04:09:06;3.38;;;3.08;;
64063;SDS011;50314;50.618;10.642;2022-07-23T04:11:31;3.58;;;3.15;;
64063;SDS011;50314;50.618;10.642;2022-07-23T04:13:57;3.75;;;2.63;;
64063;SDS011;50314;50.618;10.642;2022-07-23T04:16:22;4.35;;;2.78;;
64063;SDS011;50314;50.618;10.642;2022-07-23T04:18:47;4.07;;;2.97;;
64063;SDS011;50314;50.618;10.642;2022-07-23T04:21:13;3.50;;;3.00;;
64063;SDS011;50314;50.618;10.642;2022-07-23T04:23:38;4.60;;;3.35;;
64063;SDS011;50314;50.618;10.642;2022-07-23T04:26:04;3.75;;;2.75;;
64063;SDS011;50314;50.618;10.642;2022-07-23T04:28:29;3.53;;;2.80;;
64063;SDS011;50314;50.618;10.642;2022-07-23T04:30:58;3.97;;;3.15;;
64063;SDS011;50314;50.618;10.642;2022-07-23T04:33:24;4.10;;;3.28;;
64063;SDS011;50314;50.618;10.642;2022-07-23T04:35:49;6.78;;;3.00;;
64063;SDS011;50314;50.618;10.642;2022-07-23T04:38:15;4.75;;;3.30;;
64063;SDS011;50314;50.618;10.642;2022-07-23T04:40:40;4.28;;;2.85;;
64063;SDS011;50314;50.618;10.642;2022-07-23T04:43:06;5.90;;;3.90;;
64063;SDS011;50314;50.618;10.642;2022-07-23T04:45:31;3.92;;;3.00;;
64063;SDS011;50314;50.618;10.642;2022-07-23T04:47:56;3.38;;;2.70;;
64063;SDS011;50314;50.618;10.642;2022-07-23T04:50:22;3.95;;;3.00;;
64063;SDS011;50314;50.618;10.642;2022-07-23T04:52:48;4.45;;;3.20;;
64063;SDS011;50314;50.618;10.642;2022-07-23T04:55:14;3.45;;;3.00;;
64063;SDS011;50314;50.618;10.642;2022-07-23T04:57:40;3.28;;;2.97;;
64063;SDS011;50314;50.618;10.642;2022-07-23T05:00:05;3.92;;;3.00;;
64063;SDS011;50314;50.618;10.642;2022-07-23T05:02:32;3.63;;;2.90;;
64063;SDS011;50314;50.618;10.642;2022-07-23T05:04:57;3.13;;;2.70;;
64063;SDS011;50314;50.618;10.642;2022-07-23T05:07:23;4.10;;;2.95;;
64063;SDS011;50314;50.618;10.642;2022-07-23T05:09:50;3.67;;;3.22;;
64063;SDS011;50314;50.618;10.642;2022-07-23T05:12:15;3.75;;;3.15;;
64063;SDS011;50314;50.618;10.642;2022-07-23T05:14:41;3.83;;;3.05;;
64063;SDS011;50314;50.618;10.642;2022-07-23T05:17:07;3.50;;;3.10;;
64063;SDS011;50314;50.618;10.642;2022-07-23T05:19:33;3.78;;;3.10;;
64063;SDS011;50314;50.618;10.642;2022-07-23T05:21:59;4.90;;;3.63;;
64063;SDS011;50314;50.618;10.642;2022-07-23T05:24:24;4.00;;;3.33;;
64063;SDS011;50314;50.618;10.642;2022-07-23T05:26:50;3.67;;;3.30;;
64063;SDS011;50314;50.618;10.642;2022-07-23T05:29:15;4.70;;;3.05;;
64063;SDS011;50314;50.618;10.642;2022-07-23T05:31:41;4.20;;;3.67;;
64063;SDS011;50314;50.618;10.642;2022-07-23T05:34:06;5.28;;;3.78;;
64063;SDS011;50314;50.618;10.642;2022-07-23T05:36:32;6.10;;;3.25;;
64063;SDS011;50314;50.618;10.642;2022-07-23T05:38:57;4.20;;;3.35;;
64063;SDS011;50314;50.618;10.642;2022-07-23T05:41:23;4.00;;;3.45;;
64063;SDS011;50314;50.618;10.642;2022-07-23T05:43:49;4.40;;;3.80;;
64063;SDS011;50314;50.618;10.642;2022-07-23T05:46:14;4.18;;;3.72;;
64063;SDS011;50314;50.618;10.642;2022-07-23T05:48:40;3.97;;;3.50;;
64063;SDS011;50314;50.618;10.642;2022-07-23T05:51:07;3.63;;;3.22;;
64063;SDS011;50314;50.618;10.642;2022-07-23T05:53:33;5.38;;;3.85;;
64063;SDS011;50314;50.618;10.642;2022-07-23T05:55:59;5.05;;;3.28;;
64063;SDS011;50314;50.618;10.642;2022-07-23T05:58:25;4.45;;;3.42;;
64063;SDS011;50314;50.618;10.642;2022-07-23T06:00:50;4.50;;;3.58;;
64063;SDS011;50314;50.618;10.642;2022-07-23T06:03:16;4.60;;;3.53;;
64063;SDS011;50314;50.618;10.642;2022-07-23T06:05:41;3.78;;;3.20;;
64063;SDS011;50314;50.618;10.642;2022-07-23T06:08:07;6.40;;;3.63;;
64063;SDS011;50314;50.618;10.642;2022-07-23T06:10:32;4.72;;;3.70;;
64063;SDS011;50314;50.618;10.642;2022-07-23T06:12:58;4.60;;;3.50;;
64063;SDS011;50314;50.618;10.642;2022-07-23T06:15:23;4.13;;;3.22;;
64063;SDS011;50314;50.618;10.642;2022-07-23T06:17:48;3.72;;;3.15;;
64063;SDS011;50314;50.618;10.642;2022-07-23T06:20:14;4.00;;;3.60;;
64063;SDS011;50314;50.618;10.642;2022-07-23T06:22:39;4.28;;;3.88;;
64063;SDS011;50314;50.618;10.642;2022-07-23T06:25:05;4.88;;;3.55;;
64063;SDS011;50314;50.618;10.642;2022-07-23T06:27:32;4.00;;;3.60;;
64063;SDS011;50314;50.618;10.642;2022-07-23T06:29:58;4.30;;;3.35;;
64063;SDS011;50314;50.618;10.642;2022-07-23T06:32:23;5.63;;;3.10;;
64063;SDS011;50314;50.618;10.642;2022-07-23T06:34:48;5.43;;;3.38;;
64063;SDS011;50314;50.618;10.642;2022-07-23T06:37:14;4.82;;;3.70;;
64063;SDS011;50314;50.618;10.642;2022-07-23T06:39:39;4.15;;;3.47;;
64063;SDS011;50314;50.618;10.642;2022-07-23T06:42:05;4.53;;;3.65;;
64063;SDS011;50314;50.618;10.642;2022-07-23T06:44:30;4.47;;;3.88;;
64063;SDS011;50314;50.618;10.642;2022-07-23T06:46:56;4.80;;;3.70;;
64063;SDS011;50314;50.618;10.642;2022-07-23T06:49:21;5.50;;;4.18;;
64063;SDS011;50314;50.618;10.642;2022-07-23T06:51:46;4.95;;;3.67;;
64063;SDS011;50314;50.618;10.642;2022-07-23T06:54:12;4.07;;;3.28;;
64063;SDS011;50314;50.618;10.642;2022-07-23T06:56:37;3.80;;;3.40;;
64063;SDS011;50314;50.618;10.642;2022-07-23T06:59:03;5.78;;;3.70;;
64063;SDS011;50314;50.618;10.642;2022-07-23T07:01:28;4.47;;;3.47;;
64063;SDS011;50314;50.618;10.642;2022-07-23T07:03:54;4.85;;;3.13;;
64063;SDS011;50314;50.618;10.642;2022-07-23T07:06:19;5.43;;;3.78;;
64063;SDS011;50314;50.618;10.642;2022-07-23T07:08:45;3.95;;;2.95;;
64063;SDS011;50314;50.618;10.642;2022-07-23T07:11:10;3.85;;;3.45;;
64063;SDS011;50314;50.618;10.642;2022-07-23T07:13:36;3.92;;;3.40;;
64063;SDS011;50314;50.618;10.642;2022-07-23T07:16:02;4.38;;;3.80;;
64063;SDS011;50314;50.618;10.642;2022-07-23T07:18:28;4.40;;;3.33;;
64063;SDS011;50314;50.618;10.642;2022-07-23T07:20:53;4.13;;;3.72;;
64063;SDS011;50314;50.618;10.642;2022-07-23T07:23:19;5.45;;;3.55;;
64063;SDS011;50314;50.618;10.642;2022-07-23T07:25:45;3.92;;;3.35;;
64063;SDS011;50314;50.618;10.642;2022-07-23T07:28:11;4.15;;;3.75;;
64063;SDS011;50314;50.618;10.642;2022-07-23T07:30:37;5.13;;;3.97;;
64063;SDS011;50314;50.618;10.642;2022-07-23T07:33:02;3.83;;;3.45;;
64063;SDS011;50314;50.618;10.642;2022-07-23T07:35:28;4.13;;;3.38;;
64063;SDS011;50314;50.618;10.642;2022-07-23T07:37:53;5.22;;;4.00;;
64063;SDS011;50314;50.618;10.642;2022-07-23T07:40:19;4.30;;;3.90;;
64063;SDS011;50314;50.618;10.642;2022-07-23T07:42:48;5.05;;;3.53;;
64063;SDS011;50314;50.618;10.642;2022-07-23T07:45:15;4.40;;;3.22;;
64063;SDS011;50314;50.618;10.642;2022-07-23T07:47:41;3.75;;;3.35;;
64063;SDS011;50314;50.618;10.642;2022-07-23T07:50:07;4.90;;;3.47;;
64063;SDS011;50314;50.618;10.642;2022-07-23T07:52:33;4.78;;;3.95;;
64063;SDS011;50314;50.618;10.642;2022-07-23T07:55:01;4.85;;;3.80;;
64063;SDS011;50314;50.618;10.642;2022-07-23T07:57:28;4.25;;;3.60;;
64063;SDS011;50314;50.618;10.642;2022-07-23T07:59:53;4.82;;;3.13;;
64063;SDS011;50314;50.618;10.642;2022-07-23T08:02:18;6.78;;;3.97;;
64063;SDS011;50314;50.618;10.642;2022-07-23T08:04:44;7.43;;;3.63;;
64063;SDS011;50314;50.618;10.642;2022-07-23T08:07:09;3.75;;;3.35;;
64063;SDS011;50314;50.618;10.642;2022-07-23T08:09:35;4.63;;;3.40;;
64063;SDS011;50314;50.618;10.642;2022-07-23T08:12:00;4.45;;;3.30;;
64063;SDS011;50314;50.618;10.642;2022-07-23T08:14:26;5.57;;;3.75;;
64063;SDS011;50314;50.618;10.642;2022-07-23T08:16:51;4.30;;;3.20;;
64063;SDS011;50314;50.618;10.642;2022-07-23T08:19:17;4.35;;;3.55;;
64063;SDS011;50314;50.618;10.642;2022-07-23T08:21:42;4.03;;;3.30;;
64063;SDS011;50314;50.618;10.642;2022-07-23T08:24:07;3.67;;;3.20;;
64063;SDS011;50314;50.618;10.642;2022-07-23T08:26:33;4.65;;;4.22;;
64063;SDS011;50314;50.618;10.642;2022-07-23T08:28:58;4.78;;;3.70;;
64063;SDS011;50314;50.618;10.642;2022-07-23T08:31:23;4.18;;;3.72;;
64063;SDS011;50314;50.618;10.642;2022-07-23T08:33:49;4.47;;;3.83;;
64063;SDS011;50314;50.618;10.642;2022-07-23T08:36:14;4.97;;;4.20;;
64063;SDS011;50314;50.618;10.642;2022-07-23T08:38:40;4.10;;;3.58;;
64063;SDS011;50314;50.618;10.642;2022-07-23T08:41:06;4.43;;;3.60;;
64063;SDS011;50314;50.618;10.642;2022-07-23T08:46:00;4.13;;;2.95;;
64063;SDS011;50314;50.618;10.642;2022-07-23T08:48:35;5.10;;;3.60;;
64063;SDS011;50314;50.618;10.642;2022-07-23T08:51:02;3.97;;;3.40;;
64063;SDS011;50314;50.618;10.642;2022-07-23T08:53:29;4.53;;;3.67;;
64063;SDS011;50314;50.618;10.642;2022-07-23T08:55:56;5.57;;;4.18;;
64063;SDS011;50314;50.618;10.642;2022-07-23T08:58:23;4.68;;;3.67;;
64063;SDS011;50314;50.618;10.642;2022-07-23T09:00:50;4.30;;;3.50;;
64063;SDS011;50314;50.618;10.642;2022-07-23T09:03:17;4.32;;;3.75;;
64063;SDS011;50314;50.618;10.642;2022-07-23T09:05:46;4.95;;;3.80;;
64063;SDS011;50314;50.618;10.642;2022-07-23T09:08:13;6.82;;;3.92;;
64063;SDS011;50314;50.618;10.642;2022-07-23T09:10:44;5.35;;;3.90;;
64063;SDS011;50314;50.618;10.642;2022-07-23T09:13:33;5.03;;;3.72;;
64063;SDS011;50314;50.618;10.642;2022-07-23T09:16:13;4.07;;;3.65;;
64063;SDS011;50314;50.618;10.642;2022-07-23T09:18:51;4.20;;;3.45;;
64063;SDS011;50314;50.618;10.642;2022-07-23T09:23:51;4.88;;;3.70;;
64063;SDS011;50314;50.618;10.642;2022-07-23T09:26:37;4.97;;;3.78;;
64063;SDS011;50314;50.618;10.642;2022-07-23T09:29:15;5.35;;;3.83;;
64063;SDS011;50314;50.618;10.642;2022-07-23T09:36:41;4.60;;;4.00;;
64063;SDS011;50314;50.618;10.642;2022-07-23T09:39:07;5.20;;;3.80;;
64063;SDS011;50314;50.618;10.642;2022-07-23T09:41:34;4.15;;;3.58;;
64063;SDS011;50314;50.618;10.642;2022-07-23T09:44:08;4.80;;;4.25;;
64063;SDS011;50314;50.618;10.642;2022-07-23T09:46:35;4.93;;;4.43;;
64063;SDS011;50314;50.618;10.642;2022-07-23T09:49:00;4.57;;;4.18;;
64063;SDS011;50314;50.618;10.642;2022-07-23T09:51:46;5.22;;;4.72;;
64063;SDS011;50314;50.618;10.642;2022-07-23T09:54:22;4.53;;;3.80;;
64063;SDS011;50314;50.618;10.642;2022-07-23T09:56:57;4.22;;;3.60;;
64063;SDS011;50314;50.618;10.642;2022-07-23T09:59:34;4.80;;;3.67;;
64063;SDS011;50314;50.618;10.642;2022-07-23T10:02:01;5.40;;;4.18;;
64063;SDS011;50314;50.618;10.642;2022-07-23T10:04:29;5.63;;;3.78;;
64063;SDS011;50314;50.618;10.642;2022-07-23T10:06:56;6.28;;;4.55;;
64063;SDS011;50314;50.618;10.642;2022-07-23T10:09:25;5.22;;;4.43;;
64063;SDS011;50314;50.618;10.642;2022-07-23T10:12:01;4.97;;;4.25;;
64063;SDS011;50314;50.618;10.642;2022-07-23T10:14:39;4.78;;;4.18;;
64063;SDS011;50314;50.618;10.642;2022-07-23T10:17:06;7.85;;;5.68;;
64063;SDS011;50314;50.618;10.642;2022-07-23T10:19:32;6.47;;;4.80;;
64063;SDS011;50314;50.618;10.642;2022-07-23T10:22:00;6.30;;;5.00;;
64063;SDS011;50314;50.618;10.642;2022-07-23T10:24:35;7.50;;;4.82;;
64063;SDS011;50314;50.618;10.642;2022-07-23T10:30:07;5.68;;;4.13;;
64063;SDS011;50314;50.618;10.642;2022-07-23T10:37:47;4.90;;;4.35;;
64063;SDS011;50314;50.618;10.642;2022-07-23T10:40:17;5.20;;;4.38;;
64063;SDS011;50314;50.618;10.642;2022-07-23T10:42:44;5.82;;;4.60;;
64063;SDS011;50314;50.618;10.642;2022-07-23T10:45:27;4.72;;;4.10;;
64063;SDS011;50314;50.618;10.642;2022-07-23T10:48:18;4.57;;;4.03;;
64063;SDS011;50314;50.618;10.642;2022-07-23T10:51:10;4.85;;;3.78;;
64063;SDS011;50314;50.618;10.642;2022-07-23T10:53:53;5.65;;;4.35;;
64063;SDS011;50314;50.618;10.642;2022-07-23T10:59:22;5.75;;;5.10;;
64063;SDS011;50314;50.618;10.642;2022-07-23T11:01:47;5.60;;;4.85;;
64063;SDS011;50314;50.618;10.642;2022-07-23T11:04:13;5.20;;;4.13;;
64063;SDS011;50314;50.618;10.642;2022-07-23T11:09:29;4.88;;;4.38;;
64063;SDS011;50314;50.618;10.642;2022-07-23T11:15:21;5.10;;;4.60;;
64063;SDS011;50314;50.618;10.642;2022-07-23T11:17:27;5.10;;;4.40;;
64063;SDS011;50314;50.618;10.642;2022-07-23T11:25:12;4.63;;;4.13;;
64063;SDS011;50314;50.618;10.642;2022-07-23T11:27:40;6.28;;;4.07;;
64063;SDS011;50314;50.618;10.642;2022-07-23T11:30:07;5.50;;;4.45;;
64063;SDS011;50314;50.618;10.642;2022-07-23T11:32:35;4.10;;;3.70;;
64063;SDS011;50314;50.618;10.642;2022-07-23T11:35:18;5.05;;;4.20;;
64063;SDS011;50314;50.618;10.642;2022-07-23T11:37:47;4.75;;;4.25;;
64063;SDS011;50314;50.618;10.642;2022-07-23T11:40:16;5.10;;;4.15;;
64063;SDS011;50314;50.618;10.642;2022-07-23T11:42:52;4.63;;;4.00;;
64063;SDS011;50314;50.618;10.642;2022-07-23T11:45:19;5.03;;;4.22;;
64063;SDS011;50314;50.618;10.642;2022-07-23T11:47:44;5.15;;;4.57;;
64063;SDS011;50314;50.618;10.642;2022-07-23T11:50:10;5.20;;;4.70;;
64063;SDS011;50314;50.618;10.642;2022-07-23T11:52:35;5.32;;;4.63;;
64063;SDS011;50314;50.618;10.642;2022-07-23T11:55:05;5.80;;;4.50;;
64063;SDS011;50314;50.618;10.642;2022-07-23T11:57:33;4.50;;;4.05;;
64063;SDS011;50314;50.618;10.642;2022-07-23T12:00:04;4.90;;;4.40;;
64063;SDS011;50314;50.618;10.642;2022-07-23T12:02:39;6.10;;;4.20;;
64063;SDS011;50314;50.618;10.642;2022-07-23T12:05:05;5.28;;;4.28;;
64063;SDS011;50314;50.618;10.642;2022-07-23T12:07:35;5.60;;;4.65;;
64063;SDS011;50314;50.618;10.642;2022-07-23T12:10:13;5.10;;;4.40;;
64063;SDS011;50314;50.618;10.642;2022-07-23T12:12:41;4.82;;;4.32;;
64063;SDS011;50314;50.618;10.642;2022-07-23T12:15:15;5.78;;;4.40;;
64063;SDS011;50314;50.618;10.642;2022-07-23T12:17:43;4.97;;;4.47;;
64063;SDS011;50314;50.618;10.642;2022-07-23T12:20:13;4.95;;;3.72;;
64063;SDS011;50314;50.618;10.642;2022-07-23T12:22:41;4.72;;;4.13;;
64063;SDS011;50314;50.618;10.642;2022-07-23T12:25:10;5.25;;;4.18;;
64063;SDS011;50314;50.618;10.642;2022-07-23T12:27:41;5.45;;;3.90;;
64063;SDS011;50314;50.618;10.642;2022-07-23T12:32:46;6.68;;;4.35;;
64063;SDS011;50314;50.618;10.642;2022-07-23T12:35:14;6.65;;;4.45;;
64063;SDS011;50314;50.618;10.642;2022-07-23T12:37:41;5.93;;;4.85;;
64063;SDS011;50314;50.618;10.642;2022-07-23T12:40:20;5.95;;;5.35;;
64063;SDS011;50314;50.618;10.642;2022-07-23T12:42:50;6.30;;;4.68;;
64063;SDS011;50314;50.618;10.642;2022-07-23T12:45:18;7.05;;;4.78;;
64063;SDS011;50314;50.618;10.642;2022-07-23T12:53:16;4.88;;;4.25;;
64063;SDS011;50314;50.618;10.642;2022-07-23T12:55:46;5.93;;;4.25;;
64063;SDS011;50314;50.618;10.642;2022-07-23T12:58:14;5.20;;;4.40;;
64063;SDS011;50314;50.618;10.642;2022-07-23T13:00:51;5.13;;;4.60;;
64063;SDS011;50314;50.618;10.642;2022-07-23T13:03:24;6.88;;;4.68;;
64063;SDS011;50314;50.618;10.642;2022-07-23T13:05:52;5.32;;;4.13;;
64063;SDS011;50314;50.618;10.642;2022-07-23T13:08:17;6.50;;;4.80;;
64063;SDS011;50314;50.618;10.642;2022-07-23T13:10:43;5.07;;;4.53;;
64063;SDS011;50314;50.618;10.642;2022-07-23T13:13:11;5.68;;;4.30;;
64063;SDS011;50314;50.618;10.642;2022-07-23T13:15:37;5.47;;;4.80;;
64063;SDS011;50314;50.618;10.642;2022-07-23T13:18:03;5.10;;;4.20;;
64063;SDS011;50314;50.618;10.642;2022-07-23T13:20:28;6.93;;;4.05;;
64063;SDS011;50314;50.618;10.642;2022-07-23T13:22:54;5.60;;;4.45;;
64063;SDS011;50314;50.618;10.642;2022-07-23T13:25:20;6.95;;;4.57;;
64063;SDS011;50314;50.618;10.642;2022-07-23T13:27:45;5.45;;;4.05;;
64063;SDS011;50314;50.618;10.642;2022-07-23T13:30:11;5.30;;;4.30;;
64063;SDS011;50314;50.618;10.642;2022-07-23T13:32:36;4.75;;;4.25;;
64063;SDS011;50314;50.618;10.642;2022-07-23T13:35:02;4.97;;;3.95;;
64063;SDS011;50314;50.618;10.642;2022-07-23T13:37:28;5.03;;;4.25;;
64063;SDS011;50314;50.618;10.642;2022-07-23T13:39:54;5.00;;;4.20;;
64063;SDS011;50314;50.618;10.642;2022-07-23T13:42:19;4.45;;;4.05;;
64063;SDS011;50314;50.618;10.642;2022-07-23T13:44:44;5.35;;;4.47;;
64063;SDS011;50314;50.618;10.642;2022-07-23T13:47:10;4.68;;;3.97;;
64063;SDS011;50314;50.618;10.642;2022-07-23T13:49:35;4.55;;;3.92;;
64063;SDS011;50314;50.618;10.642;2022-07-23T13:52:03;4.45;;;4.05;;
64063;SDS011;50314;50.618;10.642;2022-07-23T13:54:29;4.50;;;3.70;;
64063;SDS011;50314;50.618;10.642;2022-07-23T13:56:54;4.05;;;3.63;;
64063;SDS011;50314;50.618;10.642;2022-07-23T13:59:20;3.97;;;3.58;;
64063;SDS011;50314;50.618;10.642;2022-07-23T14:01:46;5.20;;;3.90;;
64063;SDS011;50314;50.618;10.642;2022-07-23T14:04:12;4.63;;;3.35;;
64063;SDS011;50314;50.618;10.642;2022-07-23T14:06:37;4.18;;;3.53;;
64063;SDS011;50314;50.618;10.642;2022-07-23T14:09:03;4.90;;;3.75;;
64063;SDS011;50314;50.618;10.642;2022-07-23T14:11:28;4.20;;;3.72;;
64063;SDS011;50314;50.618;10.642;2022-07-23T14:13:55;4.47;;;3.78;;
64063;SDS011;50314;50.618;10.642;2022-07-23T14:16:21;4.63;;;3.75;;
64063;SDS011;50314;50.618;10.642;2022-07-23T14:18:47;4.38;;;3.97;;
64063;SDS011;50314;50.618;10.642;2022-07-23T14:21:12;5.43;;;3.80;;
64063;SDS011;50314;50.618;10.642;2022-07-23T14:23:38;5.50;;;4.13;;
64063;SDS011;50314;50.618;10.642;2022-07-23T14:26:03;4.88;;;4.22;;
64063;SDS011;50314;50.618;10.642;2022-07-23T14:28:29;4.93;;;3.83;;
64063;SDS011;50314;50.618;10.642;2022-07-23T14:30:54;5.43;;;4.22;;
64063;SDS011;50314;50.618;10.642;2022-07-23T14:33:19;5.07;;;3.67;;
64063;SDS011;50314;50.618;10.642;2022-07-23T14:35:45;5.47;;;4.22;;
64063;SDS011;50314;50.618;10.642;2022-07-23T14:38:11;5.25;;;3.80;;
64063;SDS011;50314;50.618;10.642;2022-07-23T14:40:36;4.22;;;3.83;;
64063;SDS011;50314;50.618;10.642;2022-07-23T14:43:02;3.80;;;3.33;;
64063;SDS011;50314;50.618;10.642;2022-07-23T14:45:27;4.47;;;4.00;;
64063;SDS011;50314;50.618;10.642;2022-07-23T14:47:55;5.00;;;4.15;;
64063;SDS011;50314;50.618;10.642;2022-07-23T14:50:21;3.97;;;3.47;;
64063;SDS011;50314;50.618;10.642;2022-07-23T14:52:46;4.97;;;3.95;;
64063;SDS011;50314;50.618;10.642;2022-07-23T14:55:12;6.07;;;4.30;;
64063;SDS011;50314;50.618;10.642;2022-07-23T14:57:37;4.25;;;3.72;;
64063;SDS011;50314;50.618;10.642;2022-07-23T15:00:05;5.18;;;3.75;;
64063;SDS011;50314;50.618;10.642;2022-07-23T15:02:32;5.05;;;4.55;;
64063;SDS011;50314;50.618;10.642;2022-07-23T15:04:57;4.47;;;4.07;;
64063;SDS011;50314;50.618;10.642;2022-07-23T15:07:26;4.82;;;4.00;;
64063;SDS011;50314;50.618;10.642;2022-07-23T15:09:51;4.35;;;3.53;;
64063;SDS011;50314;50.618;10.642;2022-07-23T15:12:17;4.63;;;3.50;;